sensor_id;sensor_type;location;lat;lon;timestamp;pressure;altitude;pressure_sealevel;temperature;humidity
59435;BME280;45241;49.768;8.636;2023-03-05T00:00:42;100592.41;;;6.53;79.18
59435;BME280;45241;49.768;8.636;2023-03-05T00:03:08;100581.34;;;6.66;78.36
59435;BME280;45241;49.768;8.636;2023-03-05T00:05:33;100582.97;;;6.85;77.58
59435;BME280;45241;49.768;8.636;2023-03-05T00:07:59;100580.00;;;6.62;78.02
59435;BME280;45241;49.768;8.636;2023-03-05T00:10:24;100577.41;;;6.26;81.50
59435;BME280;45241;49.768;8.636;2023-03-05T00:12:49;100575.97;;;6.32;79.94
59435;BME280;45241;49.768;8.636;2023-03-05T00:15:15;100575.75;;;6.51;78.90
59435;BME280;45241;49.768;8.636;2023-03-05T00:17:40;100581.09;;;6.51;79.48
59435;BME280;45241;49.768;8.636;2023-03-05T00:20:06;100575.50;;;6.62;78.13
59435;BME280;45241;49.768;8.636;2023-03-05T00:22:34;100573.97;;;5.72;82.95
59435;BME280;45241;49.768;8.636;2023-03-05T00:24:59;100576.97;;;6.13;82.06
59435;BME280;45241;49.768;8.636;2023-03-05T00:27:25;100573.75;;;6.45;79.80
59435;BME280;45241;49.768;8.636;2023-03-05T00:29:50;100569.59;;;6.51;79.10
59435;BME280;45241;49.768;8.636;2023-03-05T00:32:15;100569.28;;;6.54;79.51
59435;BME280;45241;49.768;8.636;2023-03-05T00:34:41;100571.78;;;6.55;79.26
59435;BME280;45241;49.768;8.636;2023-03-05T00:37:06;100564.09;;;6.44;80.23
59435;BME280;45241;49.768;8.636;2023-03-05T00:39:31;100566.94;;;6.51;79.33
59435;BME280;45241;49.768;8.636;2023-03-05T00:41:57;100561.03;;;6.39;80.02
59435;BME280;45241;49.768;8.636;2023-03-05T00:44:23;100560.59;;;6.26;80.83
59435;BME280;45241;49.768;8.636;2023-03-05T00:46:48;100558.63;;;6.28;80.41
59435;BME280;45241;49.768;8.636;2023-03-05T00:49:14;100560.94;;;6.23;80.24
59435;BME280;45241;49.768;8.636;2023-03-05T00:51:39;100555.13;;;6.27;80.42
59435;BME280;45241;49.768;8.636;2023-03-05T00:54:05;100552.09;;;6.22;80.10
59435;BME280;45241;49.768;8.636;2023-03-05T00:56:31;100553.44;;;6.44;79.77
59435;BME280;45241;49.768;8.636;2023-03-05T00:58:56;100547.88;;;6.37;80.18
59435;BME280;45241;49.768;8.636;2023-03-05T01:01:22;100548.97;;;6.53;79.47
59435;BME280;45241;49.768;8.636;2023-03-05T01:03:48;100539.81;;;6.55;79.32
59435;BME280;45241;49.768;8.636;2023-03-05T01:06:13;100542.03;;;6.60;79.64
59435;BME280;45241;49.768;8.636;2023-03-05T01:08:41;100544.97;;;6.57;79.50
59435;BME280;45241;49.768;8.636;2023-03-05T01:11:08;100536.63;;;6.52;79.46
59435;BME280;45241;49.768;8.636;2023-03-05T01:13:34;100537.38;;;6.36;80.66
59435;BME280;45241;49.768;8.636;2023-03-05T01:16:00;100543.53;;;6.36;79.61
59435;BME280;45241;49.768;8.636;2023-03-05T01:18:25;100534.06;;;6.16;80.79
59435;BME280;45241;49.768;8.636;2023-03-05T01:20:51;100534.31;;;6.23;80.07
59435;BME280;45241;49.768;8.636;2023-03-05T01:23:17;100534.44;;;5.95;81.25
59435;BME280;45241;49.768;8.636;2023-03-05T01:25:42;100529.16;;;6.29;80.34
59435;BME280;45241;49.768;8.636;2023-03-05T01:28:08;100524.41;;;6.33;80.08
59435;BME280;45241;49.768;8.636;2023-03-05T01:30:34;100529.00;;;6.57;79.64
59435;BME280;45241;49.768;8.636;2023-03-05T01:32:59;100519.78;;;6.43;79.43
59435;BME280;45241;49.768;8.636;2023-03-05T01:35:26;100521.56;;;6.34;79.98
59435;BME280;45241;49.768;8.636;2023-03-05T01:37:52;100517.75;;;6.11;81.31
59435;BME280;45241;49.768;8.636;2023-03-05T01:40:25;100521.56;;;6.08;81.17
59435;BME280;45241;49.768;8.636;2023-03-05T01:46:24;100511.69;;;6.27;80.30
59435;BME280;45241;49.768;8.636;2023-03-05T01:48:23;100511.44;;;6.38;79.75
59435;BME280;45241;49.768;8.636;2023-03-05T01:50:49;100510.28;;;6.40;79.45
59435;BME280;45241;49.768;8.636;2023-03-05T01:53:14;100514.59;;;6.41;79.72
59435;BME280;45241;49.768;8.636;2023-03-05T01:55:39;100508.19;;;6.26;80.50
59435;BME280;45241;49.768;8.636;2023-03-05T01:58:08;100506.84;;;6.22;80.62
59435;BME280;45241;49.768;8.636;2023-03-05T02:00:39;100505.28;;;6.37;80.20
59435;BME280;45241;49.768;8.636;2023-03-05T02:03:08;100507.03;;;6.29;80.60
59435;BME280;45241;49.768;8.636;2023-03-05T02:05:35;100504.53;;;6.27;80.49
59435;BME280;45241;49.768;8.636;2023-03-05T02:08:04;100498.03;;;5.60;83.17
59435;BME280;45241;49.768;8.636;2023-03-05T02:10:45;100489.22;;;6.03;81.50
59435;BME280;45241;49.768;8.636;2023-03-05T02:13:16;100484.19;;;6.18;80.57
59435;BME280;45241;49.768;8.636;2023-03-05T02:15:42;100478.06;;;6.26;80.10
59435;BME280;45241;49.768;8.636;2023-03-05T02:18:08;100487.31;;;6.13;80.48
59435;BME280;45241;49.768;8.636;2023-03-05T02:23:23;100479.47;;;5.86;82.36
59435;BME280;45241;49.768;8.636;2023-03-05T02:25:49;100487.19;;;5.53;85.06
59435;BME280;45241;49.768;8.636;2023-03-05T02:28:22;100489.91;;;5.79;83.30
59435;BME280;45241;49.768;8.636;2023-03-05T02:30:50;100485.13;;;6.09;81.52
59435;BME280;45241;49.768;8.636;2023-03-05T02:33:17;100483.91;;;6.03;81.92
59435;BME280;45241;49.768;8.636;2023-03-05T02:35:42;100485.31;;;6.16;81.50
59435;BME280;45241;49.768;8.636;2023-03-05T02:38:09;100479.22;;;5.53;86.47
59435;BME280;45241;49.768;8.636;2023-03-05T02:40:35;100478.72;;;5.94;82.80
59435;BME280;45241;49.768;8.636;2023-03-05T02:43:00;100480.22;;;5.96;82.37
59435;BME280;45241;49.768;8.636;2023-03-05T02:45:25;100471.16;;;6.07;81.70
59435;BME280;45241;49.768;8.636;2023-03-05T02:47:51;100463.69;;;6.10;81.79
59435;BME280;45241;49.768;8.636;2023-03-05T02:50:16;100467.34;;;6.09;81.57
59435;BME280;45241;49.768;8.636;2023-03-05T02:52:41;100462.38;;;6.14;81.13
59435;BME280;45241;49.768;8.636;2023-03-05T02:55:07;100464.44;;;6.03;81.78
59435;BME280;45241;49.768;8.636;2023-03-05T02:57:32;100461.19;;;6.09;81.61
59435;BME280;45241;49.768;8.636;2023-03-05T02:59:58;100457.41;;;6.20;81.09
59435;BME280;45241;49.768;8.636;2023-03-05T03:02:23;100452.28;;;6.00;82.38
59435;BME280;45241;49.768;8.636;2023-03-05T03:04:48;100443.53;;;6.08;81.82
59435;BME280;45241;49.768;8.636;2023-03-05T03:07:14;100442.31;;;6.02;81.85
59435;BME280;45241;49.768;8.636;2023-03-05T03:09:39;100448.88;;;6.08;82.19
59435;BME280;45241;49.768;8.636;2023-03-05T03:12:07;100444.38;;;6.08;82.13
59435;BME280;45241;49.768;8.636;2023-03-05T03:14:34;100441.31;;;5.95;82.78
59435;BME280;45241;49.768;8.636;2023-03-05T03:17:07;100436.81;;;5.96;83.05
59435;BME280;45241;49.768;8.636;2023-03-05T03:19:33;100435.25;;;6.11;82.42
59435;BME280;45241;49.768;8.636;2023-03-05T03:21:59;100433.50;;;6.02;82.36
59435;BME280;45241;49.768;8.636;2023-03-05T03:24:24;100434.19;;;6.04;82.40
59435;BME280;45241;49.768;8.636;2023-03-05T03:26:49;100432.31;;;6.22;81.66
59435;BME280;45241;49.768;8.636;2023-03-05T03:29:15;100423.25;;;6.07;82.34
59435;BME280;45241;49.768;8.636;2023-03-05T03:31:43;100429.25;;;6.09;82.29
59435;BME280;45241;49.768;8.636;2023-03-05T03:34:10;100429.44;;;6.16;81.51
59435;BME280;45241;49.768;8.636;2023-03-05T03:36:35;100422.75;;;6.11;82.22
59435;BME280;45241;49.768;8.636;2023-03-05T03:39:01;100422.19;;;6.00;83.16
59435;BME280;45241;49.768;8.636;2023-03-05T03:41:26;100425.19;;;5.97;82.89
59435;BME280;45241;49.768;8.636;2023-03-05T03:43:51;100426.19;;;6.04;83.11
59435;BME280;45241;49.768;8.636;2023-03-05T03:46:17;100416.53;;;5.95;83.52
59435;BME280;45241;49.768;8.636;2023-03-05T03:48:42;100414.88;;;6.02;83.18
59435;BME280;45241;49.768;8.636;2023-03-05T03:51:07;100405.47;;;6.16;82.16
59435;BME280;45241;49.768;8.636;2023-03-05T03:53:33;100408.81;;;5.92;83.90
59435;BME280;45241;49.768;8.636;2023-03-05T03:55:58;100403.66;;;5.90;84.31
59435;BME280;45241;49.768;8.636;2023-03-05T03:58:24;100400.72;;;5.49;87.18
59435;BME280;45241;49.768;8.636;2023-03-05T04:00:49;100398.19;;;5.22;88.28
59435;BME280;45241;49.768;8.636;2023-03-05T04:03:15;100394.66;;;5.57;87.39
59435;BME280;45241;49.768;8.636;2023-03-05T04:05:40;100393.34;;;5.61;86.90
59435;BME280;45241;49.768;8.636;2023-03-05T04:08:05;100388.59;;;5.47;87.99
59435;BME280;45241;49.768;8.636;2023-03-05T04:10:38;100388.91;;;5.70;86.68
59435;BME280;45241;49.768;8.636;2023-03-05T04:13:04;100397.16;;;5.84;85.35
59435;BME280;45241;49.768;8.636;2023-03-05T04:15:30;100384.38;;;5.62;87.67
59435;BME280;45241;49.768;8.636;2023-03-05T04:17:56;100384.38;;;5.88;85.37
59435;BME280;45241;49.768;8.636;2023-03-05T04:20:21;100388.91;;;5.70;86.14
59435;BME280;45241;49.768;8.636;2023-03-05T04:22:46;100382.88;;;5.86;85.31
59435;BME280;45241;49.768;8.636;2023-03-05T04:25:11;100387.75;;;5.72;85.83
59435;BME280;45241;49.768;8.636;2023-03-05T04:27:37;100389.19;;;5.84;85.68
59435;BME280;45241;49.768;8.636;2023-03-05T04:30:05;100388.13;;;5.77;85.95
59435;BME280;45241;49.768;8.636;2023-03-05T04:32:30;100388.03;;;5.87;85.52
59435;BME280;45241;49.768;8.636;2023-03-05T04:34:56;100393.72;;;5.92;84.79
59435;BME280;45241;49.768;8.636;2023-03-05T04:37:23;100390.91;;;5.94;84.47
59435;BME280;45241;49.768;8.636;2023-03-05T04:39:49;100386.56;;;5.93;84.00
59435;BME280;45241;49.768;8.636;2023-03-05T04:42:14;100382.13;;;6.01;84.11
59435;BME280;45241;49.768;8.636;2023-03-05T04:44:39;100388.09;;;5.95;84.42
59435;BME280;45241;49.768;8.636;2023-03-05T04:47:05;100388.00;;;5.79;85.38
59435;BME280;45241;49.768;8.636;2023-03-05T04:49:30;100389.53;;;5.90;84.66
59435;BME280;45241;49.768;8.636;2023-03-05T04:51:55;100377.34;;;5.53;86.22
59435;BME280;45241;49.768;8.636;2023-03-05T04:54:22;100381.81;;;5.78;85.90
59435;BME280;45241;49.768;8.636;2023-03-05T04:56:47;100380.88;;;5.00;90.60
59435;BME280;45241;49.768;8.636;2023-03-05T04:59:13;100384.19;;;4.84;92.79
59435;BME280;45241;49.768;8.636;2023-03-05T05:01:38;100384.50;;;4.63;95.66
59435;BME280;45241;49.768;8.636;2023-03-05T05:04:04;100387.25;;;5.07;92.19
59435;BME280;45241;49.768;8.636;2023-03-05T05:06:29;100388.22;;;5.42;89.19
59435;BME280;45241;49.768;8.636;2023-03-05T05:08:54;100382.59;;;5.71;87.42
59435;BME280;45241;49.768;8.636;2023-03-05T05:11:20;100375.78;;;5.68;87.09
59435;BME280;45241;49.768;8.636;2023-03-05T05:13:45;100381.97;;;5.77;85.72
59435;BME280;45241;49.768;8.636;2023-03-05T05:16:10;100375.66;;;5.78;85.62
59435;BME280;45241;49.768;8.636;2023-03-05T05:18:36;100380.25;;;5.42;88.18
59435;BME280;45241;49.768;8.636;2023-03-05T05:21:06;100371.31;;;5.77;86.12
59435;BME280;45241;49.768;8.636;2023-03-05T05:23:31;100380.03;;;5.87;85.10
59435;BME280;45241;49.768;8.636;2023-03-05T05:25:58;100375.25;;;5.21;89.57
59435;BME280;45241;49.768;8.636;2023-03-05T05:28:24;100369.78;;;5.22;88.56
59435;BME280;45241;49.768;8.636;2023-03-05T05:30:50;100371.44;;;5.67;86.58
59435;BME280;45241;49.768;8.636;2023-03-05T05:33:15;100370.41;;;5.86;84.65
59435;BME280;45241;49.768;8.636;2023-03-05T05:35:40;100367.63;;;5.96;84.57
59435;BME280;45241;49.768;8.636;2023-03-05T05:38:05;100373.88;;;5.87;84.12
59435;BME280;45241;49.768;8.636;2023-03-05T05:40:31;100370.06;;;5.37;86.94
59435;BME280;45241;49.768;8.636;2023-03-05T05:42:56;100369.41;;;5.61;86.52
59435;BME280;45241;49.768;8.636;2023-03-05T05:45:21;100363.06;;;5.54;88.01
59435;BME280;45241;49.768;8.636;2023-03-05T05:47:47;100369.81;;;5.74;86.04
59435;BME280;45241;49.768;8.636;2023-03-05T05:50:12;100365.75;;;5.62;86.19
59435;BME280;45241;49.768;8.636;2023-03-05T05:52:38;100365.09;;;5.16;89.65
59435;BME280;45241;49.768;8.636;2023-03-05T05:55:04;100366.91;;;5.60;87.20
59435;BME280;45241;49.768;8.636;2023-03-05T05:57:30;100371.50;;;5.75;85.95
59435;BME280;45241;49.768;8.636;2023-03-05T05:59:55;100362.09;;;5.89;84.98
59435;BME280;45241;49.768;8.636;2023-03-05T06:02:20;100367.63;;;5.96;84.52
59435;BME280;45241;49.768;8.636;2023-03-05T06:04:46;100360.09;;;5.91;85.52
59435;BME280;45241;49.768;8.636;2023-03-05T06:07:11;100361.09;;;5.64;87.01
59435;BME280;45241;49.768;8.636;2023-03-05T06:09:36;100366.22;;;5.83;85.99
59435;BME280;45241;49.768;8.636;2023-03-05T06:12:02;100362.56;;;5.84;86.16
59435;BME280;45241;49.768;8.636;2023-03-05T06:14:27;100359.31;;;5.99;85.61
59435;BME280;45241;49.768;8.636;2023-03-05T06:16:52;100361.97;;;5.99;86.15
59435;BME280;45241;49.768;8.636;2023-03-05T06:19:18;100360.00;;;6.01;85.84
59435;BME280;45241;49.768;8.636;2023-03-05T06:21:43;100357.66;;;5.98;85.65
59435;BME280;45241;49.768;8.636;2023-03-05T06:24:08;100361.88;;;6.08;85.23
59435;BME280;45241;49.768;8.636;2023-03-05T06:26:34;100356.03;;;6.05;85.51
59435;BME280;45241;49.768;8.636;2023-03-05T06:29:00;100359.91;;;5.59;87.50
59435;BME280;45241;49.768;8.636;2023-03-05T06:31:28;100358.19;;;5.75;87.89
59435;BME280;45241;49.768;8.636;2023-03-05T06:33:56;100360.84;;;5.75;86.55
59435;BME280;45241;49.768;8.636;2023-03-05T06:36:22;100359.56;;;5.79;86.25
59435;BME280;45241;49.768;8.636;2023-03-05T06:38:49;100358.75;;;5.87;86.12
59435;BME280;45241;49.768;8.636;2023-03-05T06:41:17;100367.53;;;5.79;86.25
59435;BME280;45241;49.768;8.636;2023-03-05T06:43:44;100361.31;;;5.71;86.94
59435;BME280;45241;49.768;8.636;2023-03-05T06:46:26;100360.50;;;5.70;86.58
59435;BME280;45241;49.768;8.636;2023-03-05T06:48:55;100347.44;;;5.33;88.55
59435;BME280;45241;49.768;8.636;2023-03-05T06:51:26;100356.50;;;5.48;89.17
59435;BME280;45241;49.768;8.636;2023-03-05T06:53:53;100357.34;;;5.75;87.21
59435;BME280;45241;49.768;8.636;2023-03-05T06:56:19;100356.91;;;5.79;86.53
59435;BME280;45241;49.768;8.636;2023-03-05T06:58:46;100358.84;;;5.77;86.80
59435;BME280;45241;49.768;8.636;2023-03-05T07:01:12;100359.50;;;5.71;87.58
59435;BME280;45241;49.768;8.636;2023-03-05T07:03:38;100352.03;;;5.75;87.96
59435;BME280;45241;49.768;8.636;2023-03-05T07:06:06;100351.94;;;5.84;87.16
59435;BME280;45241;49.768;8.636;2023-03-05T07:08:32;100353.94;;;5.91;86.63
59435;BME280;45241;49.768;8.636;2023-03-05T07:10:59;100347.38;;;5.77;88.19
59435;BME280;45241;49.768;8.636;2023-03-05T07:13:25;100345.38;;;5.71;88.49
59435;BME280;45241;49.768;8.636;2023-03-05T07:15:51;100352.13;;;5.65;90.24
59435;BME280;45241;49.768;8.636;2023-03-05T07:18:16;100352.41;;;5.54;90.86
59435;BME280;45241;49.768;8.636;2023-03-05T07:20:41;100351.78;;;5.86;88.20
59435;BME280;45241;49.768;8.636;2023-03-05T07:23:07;100349.41;;;5.31;92.74
59435;BME280;45241;49.768;8.636;2023-03-05T07:25:34;100350.84;;;5.69;90.99
59435;BME280;45241;49.768;8.636;2023-03-05T07:28:00;100352.50;;;5.70;88.28
59435;BME280;45241;49.768;8.636;2023-03-05T07:30:25;100354.34;;;6.04;88.09
59435;BME280;45241;49.768;8.636;2023-03-05T07:32:50;100349.38;;;5.75;91.63
59435;BME280;45241;49.768;8.636;2023-03-05T07:35:16;100353.13;;;5.64;91.83
59435;BME280;45241;49.768;8.636;2023-03-05T07:37:41;100348.06;;;6.05;89.94
59435;BME280;45241;49.768;8.636;2023-03-05T07:40:07;100347.75;;;6.16;87.17
59435;BME280;45241;49.768;8.636;2023-03-05T07:42:33;100346.06;;;6.07;86.87
59435;BME280;45241;49.768;8.636;2023-03-05T07:44:58;100345.56;;;5.77;89.26
59435;BME280;45241;49.768;8.636;2023-03-05T07:47:23;100352.50;;;5.70;89.47
59435;BME280;45241;49.768;8.636;2023-03-05T07:49:49;100353.28;;;5.63;90.58
59435;BME280;45241;49.768;8.636;2023-03-05T07:52:14;100353.66;;;5.68;90.72
59435;BME280;45241;49.768;8.636;2023-03-05T07:54:40;100359.09;;;5.58;90.23
59435;BME280;45241;49.768;8.636;2023-03-05T07:57:10;100355.06;;;5.54;89.95
59435;BME280;45241;49.768;8.636;2023-03-05T07:59:37;100354.19;;;5.71;90.14
59435;BME280;45241;49.768;8.636;2023-03-05T08:02:02;100353.78;;;5.58;90.15
59435;BME280;45241;49.768;8.636;2023-03-05T08:04:27;100354.25;;;5.79;89.67
59435;BME280;45241;49.768;8.636;2023-03-05T08:06:56;100348.38;;;5.76;89.14
59435;BME280;45241;49.768;8.636;2023-03-05T08:09:21;100360.38;;;6.14;87.47
59435;BME280;45241;49.768;8.636;2023-03-05T08:11:46;100349.13;;;6.20;87.17
59435;BME280;45241;49.768;8.636;2023-03-05T08:14:12;100355.81;;;6.32;85.07
59435;BME280;45241;49.768;8.636;2023-03-05T08:16:37;100354.84;;;6.41;84.43
59435;BME280;45241;49.768;8.636;2023-03-05T08:19:03;100351.88;;;6.45;84.69
59435;BME280;45241;49.768;8.636;2023-03-05T08:21:31;100346.63;;;6.19;86.76
59435;BME280;45241;49.768;8.636;2023-03-05T08:23:58;100352.44;;;5.88;85.25
59435;BME280;45241;49.768;8.636;2023-03-05T08:26:27;100336.81;;;6.27;85.55
59435;BME280;45241;49.768;8.636;2023-03-05T08:28:52;100345.88;;;6.51;84.01
59435;BME280;45241;49.768;8.636;2023-03-05T08:31:19;100344.34;;;6.40;84.54
59435;BME280;45241;49.768;8.636;2023-03-05T08:33:46;100339.03;;;6.40;84.38
59435;BME280;45241;49.768;8.636;2023-03-05T08:36:11;100334.81;;;6.21;84.22
59435;BME280;45241;49.768;8.636;2023-03-05T08:38:37;100335.88;;;6.45;83.95
59435;BME280;45241;49.768;8.636;2023-03-05T08:41:02;100338.94;;;5.81;86.47
59435;BME280;45241;49.768;8.636;2023-03-05T08:43:28;100327.50;;;6.23;85.70
59435;BME280;45241;49.768;8.636;2023-03-05T08:45:55;100331.06;;;6.48;83.78
59435;BME280;45241;49.768;8.636;2023-03-05T08:48:20;100330.53;;;6.36;83.19
59435;BME280;45241;49.768;8.636;2023-03-05T08:50:45;100331.75;;;5.74;85.91
59435;BME280;45241;49.768;8.636;2023-03-05T08:53:11;100332.03;;;6.39;84.10
59435;BME280;45241;49.768;8.636;2023-03-05T08:55:36;100333.97;;;5.87;85.13
59435;BME280;45241;49.768;8.636;2023-03-05T08:58:02;100328.41;;;5.72;83.47
59435;BME280;45241;49.768;8.636;2023-03-05T09:00:28;100318.28;;;5.75;82.80
59435;BME280;45241;49.768;8.636;2023-03-05T09:02:53;100322.50;;;6.20;83.11
59435;BME280;45241;49.768;8.636;2023-03-05T09:05:18;100324.00;;;5.89;82.39
59435;BME280;45241;49.768;8.636;2023-03-05T09:07:44;100318.53;;;6.40;81.02
59435;BME280;45241;49.768;8.636;2023-03-05T09:10:10;100319.44;;;6.57;79.12
59435;BME280;45241;49.768;8.636;2023-03-05T09:12:37;100318.22;;;6.35;78.94
59435;BME280;45241;49.768;8.636;2023-03-05T09:15:05;100313.91;;;6.51;77.73
59435;BME280;45241;49.768;8.636;2023-03-05T09:17:32;100321.50;;;6.21;78.78
59435;BME280;45241;49.768;8.636;2023-03-05T09:19:57;100314.25;;;6.56;77.52
59435;BME280;45241;49.768;8.636;2023-03-05T09:22:23;100315.56;;;6.35;77.08
59435;BME280;45241;49.768;8.636;2023-03-05T09:24:48;100311.22;;;6.34;75.76
59435;BME280;45241;49.768;8.636;2023-03-05T09:27:13;100311.81;;;6.12;75.08
59435;BME280;45241;49.768;8.636;2023-03-05T09:29:38;100313.38;;;5.89;75.70
59435;BME280;45241;49.768;8.636;2023-03-05T09:32:04;100313.56;;;5.95;74.72
59435;BME280;45241;49.768;8.636;2023-03-05T09:34:29;100307.75;;;6.00;74.40
59435;BME280;45241;49.768;8.636;2023-03-05T09:36:55;100306.91;;;6.33;73.47
59435;BME280;45241;49.768;8.636;2023-03-05T09:39:20;100295.91;;;6.36;73.17
59435;BME280;45241;49.768;8.636;2023-03-05T09:44:34;100297.72;;;6.28;72.97
59435;BME280;45241;49.768;8.636;2023-03-05T09:50:02;100297.75;;;6.36;72.38
59435;BME280;45241;49.768;8.636;2023-03-05T09:52:39;100293.78;;;6.48;71.62
59435;BME280;45241;49.768;8.636;2023-03-05T09:55:12;100277.78;;;6.56;72.04
59435;BME280;45241;49.768;8.636;2023-03-05T09:57:41;100285.81;;;6.81;71.20
59435;BME280;45241;49.768;8.636;2023-03-05T10:03:04;100277.50;;;6.76;70.61
59435;BME280;45241;49.768;8.636;2023-03-05T10:08:10;100270.31;;;6.52;69.55
59435;BME280;45241;49.768;8.636;2023-03-05T10:10:40;100274.31;;;6.48;69.33
59435;BME280;45241;49.768;8.636;2023-03-05T10:13:26;100265.66;;;6.54;69.05
59435;BME280;45241;49.768;8.636;2023-03-05T10:16:01;100265.84;;;6.77;68.75
59435;BME280;45241;49.768;8.636;2023-03-05T10:18:51;100260.50;;;6.77;68.13
59435;BME280;45241;49.768;8.636;2023-03-05T10:21:34;100254.03;;;7.12;67.86
59435;BME280;45241;49.768;8.636;2023-03-05T10:24:24;100250.69;;;7.18;68.22
59435;BME280;45241;49.768;8.636;2023-03-05T10:27:07;100243.22;;;7.05;67.52
59435;BME280;45241;49.768;8.636;2023-03-05T10:32:23;100239.16;;;7.34;67.44
59435;BME280;45241;49.768;8.636;2023-03-05T10:35:07;100233.50;;;7.28;66.90
59435;BME280;45241;49.768;8.636;2023-03-05T10:37:58;100239.44;;;7.55;66.77
59435;BME280;45241;49.768;8.636;2023-03-05T10:40:46;100231.84;;;7.36;65.37
59435;BME280;45241;49.768;8.636;2023-03-05T10:43:23;100241.19;;;7.15;65.68
59435;BME280;45241;49.768;8.636;2023-03-05T10:45:52;100234.34;;;7.29;64.96
59435;BME280;45241;49.768;8.636;2023-03-05T10:50:59;100222.72;;;6.97;66.63
59435;BME280;45241;49.768;8.636;2023-03-05T10:53:56;100228.19;;;7.28;66.43
59435;BME280;45241;49.768;8.636;2023-03-05T10:56:24;100223.31;;;7.40;65.45
59435;BME280;45241;49.768;8.636;2023-03-05T10:58:51;100218.03;;;7.24;64.80
59435;BME280;45241;49.768;8.636;2023-03-05T11:03:54;100209.63;;;7.43;64.96
59435;BME280;45241;49.768;8.636;2023-03-05T11:08:53;100209.84;;;7.73;65.27
59435;BME280;45241;49.768;8.636;2023-03-05T11:11:20;100204.28;;;7.51;66.34
59435;BME280;45241;49.768;8.636;2023-03-05T11:13:57;100205.72;;;7.15;63.92
59435;BME280;45241;49.768;8.636;2023-03-05T11:16:34;100200.03;;;7.26;63.43
59435;BME280;45241;49.768;8.636;2023-03-05T11:19:15;100200.34;;;7.31;63.36
59435;BME280;45241;49.768;8.636;2023-03-05T11:21:42;100197.34;;;7.26;64.66
59435;BME280;45241;49.768;8.636;2023-03-05T11:24:18;100205.31;;;7.34;62.42
59435;BME280;45241;49.768;8.636;2023-03-05T11:26:54;100196.34;;;7.35;62.49
59435;BME280;45241;49.768;8.636;2023-03-05T11:29:29;100193.22;;;6.91;62.27
59435;BME280;45241;49.768;8.636;2023-03-05T11:31:55;100187.56;;;7.10;63.19
59435;BME280;45241;49.768;8.636;2023-03-05T11:34:38;100185.56;;;6.96;62.03
59435;BME280;45241;49.768;8.636;2023-03-05T11:37:05;100194.53;;;7.27;61.97
59435;BME280;45241;49.768;8.636;2023-03-05T11:39:32;100182.22;;;7.18;60.95
59435;BME280;45241;49.768;8.636;2023-03-05T11:42:09;100184.56;;;7.13;61.70
59435;BME280;45241;49.768;8.636;2023-03-05T11:44:50;100182.31;;;7.33;61.52
59435;BME280;45241;49.768;8.636;2023-03-05T11:47:34;100181.00;;;7.29;61.27
59435;BME280;45241;49.768;8.636;2023-03-05T11:50:21;100166.88;;;7.20;61.66
59435;BME280;45241;49.768;8.636;2023-03-05T11:52:52;100173.00;;;7.37;61.01
59435;BME280;45241;49.768;8.636;2023-03-05T11:55:33;100168.09;;;6.85;62.12
59435;BME280;45241;49.768;8.636;2023-03-05T11:58:14;100160.75;;;7.04;62.43
59435;BME280;45241;49.768;8.636;2023-03-05T12:00:44;100163.41;;;7.12;62.67
59435;BME280;45241;49.768;8.636;2023-03-05T12:03:13;100155.88;;;7.23;62.79
59435;BME280;45241;49.768;8.636;2023-03-05T12:05:44;100150.44;;;6.76;63.09
59435;BME280;45241;49.768;8.636;2023-03-05T12:08:14;100154.78;;;6.85;63.00
59435;BME280;45241;49.768;8.636;2023-03-05T12:10:41;100134.91;;;7.12;63.88
59435;BME280;45241;49.768;8.636;2023-03-05T12:13:35;100139.44;;;7.04;62.83
59435;BME280;45241;49.768;8.636;2023-03-05T12:16:22;100132.56;;;7.17;62.37
59435;BME280;45241;49.768;8.636;2023-03-05T12:18:57;100134.81;;;6.73;63.33
59435;BME280;45241;49.768;8.636;2023-03-05T12:21:37;100141.81;;;6.50;63.85
59435;BME280;45241;49.768;8.636;2023-03-05T12:32:05;100120.03;;;6.46;65.06
59435;BME280;45241;49.768;8.636;2023-03-05T12:34:56;100125.50;;;6.53;66.73
59435;BME280;45241;49.768;8.636;2023-03-05T12:47:33;100110.53;;;6.27;69.36
59435;BME280;45241;49.768;8.636;2023-03-05T12:49:59;100102.06;;;6.32;68.71
59435;BME280;45241;49.768;8.636;2023-03-05T12:52:27;100105.03;;;6.53;67.95
59435;BME280;45241;49.768;8.636;2023-03-05T12:54:59;100089.88;;;6.29;68.72
59435;BME280;45241;49.768;8.636;2023-03-05T12:57:25;100085.88;;;6.58;68.26
59435;BME280;45241;49.768;8.636;2023-03-05T13:00:09;100083.22;;;6.50;67.21
59435;BME280;45241;49.768;8.636;2023-03-05T13:02:45;100082.88;;;6.61;66.87
59435;BME280;45241;49.768;8.636;2023-03-05T13:05:24;100079.91;;;6.15;66.78
59435;BME280;45241;49.768;8.636;2023-03-05T13:07:51;100074.09;;;6.44;65.73
59435;BME280;45241;49.768;8.636;2023-03-05T13:10:25;100063.34;;;6.77;66.14
59435;BME280;45241;49.768;8.636;2023-03-05T13:12:52;100064.63;;;6.97;65.60
59435;BME280;45241;49.768;8.636;2023-03-05T13:15:18;100061.75;;;6.59;66.44
59435;BME280;45241;49.768;8.636;2023-03-05T13:17:54;100063.97;;;6.31;67.61
59435;BME280;45241;49.768;8.636;2023-03-05T13:20:25;100060.09;;;6.42;67.57
59435;BME280;45241;49.768;8.636;2023-03-05T13:25:28;100056.22;;;6.69;66.66
59435;BME280;45241;49.768;8.636;2023-03-05T13:28:21;100048.78;;;6.40;66.06
59435;BME280;45241;49.768;8.636;2023-03-05T13:31:00;100044.31;;;6.32;67.31
59435;BME280;45241;49.768;8.636;2023-03-05T13:33:35;100032.56;;;6.74;66.51
59435;BME280;45241;49.768;8.636;2023-03-05T13:36:02;100033.94;;;6.70;65.97
59435;BME280;45241;49.768;8.636;2023-03-05T13:38:43;100042.47;;;6.49;66.28
59435;BME280;45241;49.768;8.636;2023-03-05T13:43:44;100034.97;;;6.45;66.49
59435;BME280;45241;49.768;8.636;2023-03-05T13:46:10;100029.47;;;6.46;66.31
59435;BME280;45241;49.768;8.636;2023-03-05T13:48:36;100031.88;;;6.80;65.78
59435;BME280;45241;49.768;8.636;2023-03-05T13:51:01;100026.41;;;6.73;65.70
59435;BME280;45241;49.768;8.636;2023-03-05T13:53:31;100024.41;;;6.76;65.70
59435;BME280;45241;49.768;8.636;2023-03-05T13:55:59;100019.31;;;7.05;64.96